Edgewater, New Jersey
Current Conditions -  °F | °C
As of 4:51 PM on Monday 22 Dec 2014 (Local Time) from KNYC Reporting Station
Overcast Overcast  
Wind Chill: 38°   Ceiling: 800
Heat Index: 42°   Visibility: 7mi
Dew Point: 38°   Wind: 6mph
Humidity: 85%   Direction: NA
Pressure: 30.24"   Gusts: NA
Location:  40.83°N, 73.97°W
Report Text: KNYC 222151Z AUTO VRB05KT 7SM OVC008 06/03 A3024 RMK AO2 CIG 007V011 SLP232 T00560033 $
Loading
Personal Weather Stations






























Interactive Weather Map New forecast layout! Learn more

10-Day Weather Forecast

Advertisements
Track Severe Weather on mobile